»·PEaware :: N572DX KCNO-KSAN

N572DX :: KCNO-KSAN

FLIGHT INFORMATION

Flight Status: Arrived
Operator: Privately registered:
United States
More flights under this callsign
Pilot: Anonymous 8799 (8799)
Aircraft: CESSNA 172 SKYHAWK
(C172)
More flights by this aircraft type
Origin: KCNO Chino
United States
Destination: KSAN San Diego Intl-Lindbergh
United States
More flights between these airports :: More routes between these airports
Route: +PDZ V186 HAILE V66 MZB
File this flight plan on PilotEdge
Remarks:
Altitude:
(Current/Filed)
9,000ft
Speed:
(Current/Filed)
0kts
Departed: 28-Nov-17 08:55 AM
Arrived: 28-Nov-17 09:54 AM
Distance/Time
Traveled:
78nm/0:59
Distance/Time
To Go:
Arrived

Flight Plot

Page will automatically refresh every two minutes.


Map Options




Map Legend


Flown Route
Filed Route
Departure Airport
Arrival Airport
Navaid (VOR, NDB)
Fix

Horizontal Profiles

Position Reports

Time Latitude Longitude Heading Altitude Ground
Speed
28-Nov-17 08:53 33.978543 -117.635121 134 640ft 0kts
28-Nov-17 08:54 33.978543 -117.635121 134 640ft 0kts
28-Nov-17 08:55 33.978543 -117.635121 134 640ft 0kts
28-Nov-17 08:56 33.976908 -117.635476 104 635ft 9kts
28-Nov-17 08:57 33.976892 -117.631923 81 639ft 8kts
28-Nov-17 08:58 33.976891 -117.630592 218 640ft 0kts
28-Nov-17 08:59 33.975997 -117.631198 239 636ft 16kts
28-Nov-17 09:00 33.976179 -117.653436 270 993ft 92kts
28-Nov-17 09:01 33.977037 -117.687988 271 1452ft 107kts
28-Nov-17 09:02 33.977965 -117.724063 271 1953ft 107kts
28-Nov-17 09:03 33.978870 -117.760128 271 2452ft 108kts
28-Nov-17 09:04 33.979707 -117.796009 271 2951ft 105kts
28-Nov-17 09:05 33.975196 -117.828750 206 3452ft 104kts
28-Nov-17 09:06 33.959479 -117.806799 100 3960ft 103kts
28-Nov-17 09:07 33.954552 -117.772446 98 4461ft 104kts
28-Nov-17 09:08 33.949571 -117.738250 99 4958ft 104kts
28-Nov-17 09:09 33.944536 -117.704129 99 5457ft 101kts
28-Nov-17 09:10 33.939713 -117.671643 99 5952ft 96kts
28-Nov-17 09:11 33.935056 -117.640283 99 6451ft 93kts
28-Nov-17 09:12 33.930670 -117.610840 99 6945ft 86kts
28-Nov-17 09:13 33.925843 -117.578622 99 7249ft 95kts
28-Nov-17 09:14 33.921634 -117.550363 100 7778ft 80kts
28-Nov-17 09:15 33.913212 -117.527016 140 8188ft 80kts
28-Nov-17 09:16 33.895379 -117.511059 142 8587ft 79kts
28-Nov-17 09:17 33.877704 -117.495829 143 8961ft 80kts
28-Nov-17 09:18 33.855769 -117.477260 144 8981ft 107kts
28-Nov-17 09:19 33.830363 -117.455945 144 8990ft 113kts
28-Nov-17 09:20 33.804282 -117.434104 144 9000ft 114kts
28-Nov-17 09:21 33.778074 -117.412174 144 9011ft 114kts
28-Nov-17 09:22 33.751888 -117.390279 144 9021ft 114kts
28-Nov-17 09:23 33.726699 -117.369229 144 9026ft 115kts
28-Nov-17 09:24 33.700518 -117.347373 144 9027ft 115kts
28-Nov-17 09:25 33.674374 -117.325562 144 9024ft 115kts
28-Nov-17 09:26 33.647662 -117.303277 147 9022ft 119kts
28-Nov-17 09:27 33.620226 -117.280445 147 9002ft 121kts
28-Nov-17 09:28 33.592733 -117.257567 147 9001ft 120kts
28-Nov-17 09:29 33.565290 -117.234745 147 9001ft 120kts
28-Nov-17 09:30 33.537857 -117.211948 147 9001ft 120kts
28-Nov-17 09:31 33.510405 -117.189155 147 8999ft 120kts
28-Nov-17 09:32 33.482969 -117.166392 147 8997ft 120kts
28-Nov-17 09:33 33.451515 -117.156103 171 8992ft 118kts
28-Nov-17 09:34 33.419173 -117.149040 171 8989ft 118kts
28-Nov-17 09:35 33.386876 -117.142135 171 8985ft 118kts
28-Nov-17 09:36 33.354452 -117.135247 171 8981ft 118kts
28-Nov-17 09:37 33.322066 -117.128383 171 8978ft 118kts
28-Nov-17 09:38 33.289611 -117.121513 171 8974ft 118kts
28-Nov-17 09:39 33.257203 -117.114657 171 8972ft 118kts
28-Nov-17 09:40 33.227096 -117.093270 142 8505ft 141kts
28-Nov-17 09:41 33.196977 -117.064292 142 7803ft 138kts
28-Nov-17 09:42 33.167114 -117.035883 142 7102ft 137kts
28-Nov-17 09:43 33.139662 -117.009922 142 6976ft 119kts
28-Nov-17 09:44 33.114408 -116.986031 142 6977ft 122kts
28-Nov-17 09:45 33.087534 -116.961128 154 6976ft 122kts
28-Nov-17 09:46 33.053531 -116.946820 162 6575ft 140kts
28-Nov-17 09:47 33.016084 -116.931683 162 5979ft 144kts
28-Nov-17 09:48 32.977951 -116.916418 162 5381ft 144kts
28-Nov-17 09:49 32.940381 -116.901571 162 4981ft 134kts
28-Nov-17 09:50 32.906596 -116.915163 212 4545ft 140kts
28-Nov-17 09:51 32.873712 -116.938782 212 3996ft 139kts
28-Nov-17 09:52 32.843110 -116.960867 212 3978ft 124kts
28-Nov-17 09:53 32.812757 -116.982838 212 3687ft 135kts
28-Nov-17 09:54 32.780470 -117.006574 212 3188ft 137kts
28-Nov-17 09:55 32.758802 -117.042169 249 2643ft 139kts
28-Nov-17 09:56 32.745586 -117.085491 250 2043ft 139kts
28-Nov-17 09:57 32.733842 -117.124493 250 1433ft 109kts
28-Nov-17 09:58 32.726395 -117.156884 270 687ft 104kts
28-Nov-17 09:59 32.732087 -117.183402 287 17ft 27kts
28-Nov-17 10:00 32.733160 -117.184072 56 17ft 4kts
28-Nov-17 10:01 32.732350 -117.179955 105 18ft 16kts
28-Nov-17 10:02 32.732423 -117.176878 200 23ft 0kts
28-Nov-17 10:03 32.732423 -117.176878 200 23ft 0kts

Navigation Log

Ident Type
1. KCNO Airport
2. PDZ Navaid
3. NIKKL Fix
4. WESIN Fix
5. TANNR Fix
6. DEGLE Fix
7. ROBNN Fix
8. HAILE Fix
9. MZB Navaid
10. KSAN Airport